Olympic National Park, WA

04:52 PM PDT am 29. September 2016 (GMT -0700)
Lake Dawn | | Change Station

Höhe 1864 ft 48.04 °N, 123.43 °W | Updated 7 minutes ago

Clear
Heiter
55.9 °F
gefühlte 55.9 °F
N
2.2
Wind Wechselnd Wind aus Südost
Gusts 5.4 mph

Heute
Max. -- | schwach -- °F
--% Regenrisiko
Gestern
Max. -- | schwach -- °F
Precip. -- inch
Druck 30.09 inch
Sichtweite 10.0 Meilen
Wolken Heiter
Taupunkt 31 °F
Feuchtigkeit 39%
Regen 0.00 inch
Schneehöhe Nicht verfügbar..
7:11 AM 6:56 PM
Letztes Viertel, 1% visible
METAR KCLM 292253Z AUTO 31008KT 10SM CLR 16/04 A3008 RMK AO2 SLP187 T01610044
Druck 30.09 inch
Sichtweite 10.0 Meilen
Wolken Heiter
Taupunkt 31 °F
Feuchtigkeit 39%
Regen 0.00 inch
Schneehöhe Nicht verfügbar..
7:11 AM 6:56 PM
Letztes Viertel, 1% visible
METAR KCLM 292253Z AUTO 31008KT 10SM CLR 16/04 A3008 RMK AO2 SLP187 T01610044

10-Day Weather Forecast

Almanac

Astronomie

Sep. 29, 2016 Aufgang Untergang
Genaue Zeit
Bürgerliche Dämmerung
Nautische Dämmerung
Astronomische Dämmerung
Mond
Länge des sichtbaren Lichts
Tageslänge
Tomorrow will be .
, % of the Moon is Illuminated

Heutige Rekorde

State Highs State Lows

Community

WunderPhotos

Upload Photos

1,942,602 Fotos hochgeladen!

WunderBlog® & News

Nearby

Luftqualität

  Luftqualität LQ Index Schadstoff
Not available.

Schneehöhe

Station Depth Höhe

Erdbebenaktivität

Stadt Distance Mag. Time & Date
Minimum magnitude displayed is 2.5.

küstennahe Wassertemperaturen

Ort Temperatur

Stations

Wetterstationen in der Umgebung

Stationsstandort Temp. Windchill Taupunkt Feuchtigkeit Wind Precip. Höhe Aktualisiert Art
                   

Watches & Warnings

There are currently no watches in effect.